Faith, SD

3:52 AM MDT on July 29, 2015 (GMT -0600)
Faith | | Change Station
CLOSE
Current Station
Airport
Location: Faith,
Elevation: 2582 ft
Nearby Weather Stations

Elev 2582 ft 45.03 °N, 102.02 °W | Updated 56 minutes ago

Clear
Clear
57 °F
Feels Like 57 °F
N
14
Wind Variable Wind from West
Gusts 26 mph

Today
High -- | Low -- °F
--% Chance of Precip.
Yesterday
High -- | Low -- °F
Precip. -- in
5:29 AM 8:18 PM
Waxing Gibbous, 94% visible
Pressure 30.08 in
Visibility -9999.0 miles
Clouds
Dew Point 38 °F
Humidity 49%
Rainfall 0.00 in
Snow Depth Not available.
UV Not available.
Pollen 7.00 out of 12
Air Quality Not available.
Flu Activity Not available.
METAR KD07 290856Z AUTO 26012KT 14/03 A3010 RMK AO1 SLP184 T01390033 53005

More Conditions Fewer Conditions

Pressure 30.08 in
Visibility -9999.0 miles
Clouds
Dew Point 38 °F
Humidity 49%
Rainfall 0.00 in
Snow Depth Not available.
UV Not available.
Pollen 7.00 out of 12
Air Quality Not available.
Flu Activity Not available.
METAR KD07 290856Z AUTO 26012KT 14/03 A3010 RMK AO1 SLP184 T01390033 53005

More Conditions Fewer Conditions

10-Day Weather Forecast

×

Almanac

Astronomy

Jul. 29, 2015 Rise Set
Actual Time
Civil Twilight
Nautical Twilight
Astronomical Twilight
Moon
Length of Visible Light
Length of Day
Tomorrow will be .
, % of the Moon is Illuminated

Today's Extremes

State Highs State Lows

Community

WunderPhotos

Upload Photos

1,842,070 photos uploaded!

WunderBlogs® & News

Nearby

Air Quality

  Air Quality AQ Index Pollutant
Not available.

Snow Depth

Station Depth Elevation

Earthquake Activity

City Distance Mag. Time & Date
Minimum magnitude displayed is 2.5.

Coastal Water Temperatures

Place Temperature

Stations

Nearby Weather Stations

Station Location Temp. Windchill Dew Point Humidity Wind Precip. Elev Updated Type